createdAt,value
2022-10-12T00:01:02.246Z,77.70
2022-10-12T00:03:30.941Z,78.20
2022-10-12T00:06:06.652Z,78.00
2022-10-12T00:08:37.004Z,78.00
2022-10-12T00:11:06.100Z,77.80
2022-10-12T00:13:34.397Z,77.80
2022-10-12T00:16:04.835Z,77.80
2022-10-12T00:18:33.490Z,77.70
2022-10-12T00:21:03.348Z,77.60
2022-10-12T00:23:32.191Z,77.70
2022-10-12T00:26:05.187Z,77.50
2022-10-12T00:28:34.234Z,77.70
2022-10-12T00:31:03.336Z,77.50
2022-10-12T00:33:31.681Z,77.50
2022-10-12T00:35:59.947Z,77.50
2022-10-12T00:38:28.180Z,77.50
2022-10-12T00:40:56.426Z,77.50
2022-10-12T00:43:34.262Z,77.40
2022-10-12T00:46:04.745Z,77.40
2022-10-12T00:48:33.175Z,77.40
2022-10-12T00:51:03.509Z,77.30
2022-10-12T00:53:36.992Z,77.40
2022-10-12T00:56:11.922Z,77.50
2022-10-12T00:58:41.638Z,77.50
2022-10-12T01:01:10.653Z,77.50
2022-10-12T01:03:39.350Z,77.50
2022-10-12T01:06:08.894Z,77.50
2022-10-12T01:08:37.958Z,77.70
2022-10-12T01:11:06.778Z,78.10
2022-10-12T01:13:35.207Z,78.30
2022-10-12T01:16:12.607Z,78.80
2022-10-12T01:18:46.922Z,78.80
2022-10-12T01:21:21.057Z,79.10
2022-10-12T01:24:31.222Z,79.40
2022-10-12T01:27:08.315Z,79.70
2022-10-12T01:29:56.143Z,80.00
2022-10-12T01:32:27.985Z,80.40
2022-10-12T01:35:03.387Z,80.80
2022-10-12T01:37:39.574Z,80.80
2022-10-12T01:40:13.339Z,81.40
2022-10-12T01:42:45.095Z,81.60
2022-10-12T01:45:17.189Z,81.60
2022-10-12T01:47:48.683Z,81.70
2022-10-12T01:50:18.850Z,81.90
2022-10-12T01:52:58.392Z,81.90
2022-10-12T01:55:39.912Z,81.80
2022-10-12T01:58:28.545Z,82.00
2022-10-12T02:01:06.809Z,82.20
2022-10-12T02:03:41.308Z,82.50
2022-10-12T02:06:14.889Z,82.40
2022-10-12T02:08:47.793Z,82.30
2022-10-12T02:11:18.574Z,82.60
2022-10-12T02:13:52.335Z,82.50
2022-10-12T02:16:25.187Z,82.50
2022-10-12T02:18:55.962Z,82.60
2022-10-12T02:21:28.448Z,82.90
2022-10-12T02:23:59.214Z,82.90
2022-10-12T02:26:29.004Z,82.90
2022-10-12T02:28:59.762Z,83.00
2022-10-12T02:31:36.733Z,83.10
2022-10-12T02:34:11.222Z,83.00
2022-10-12T02:36:45.062Z,83.20
2022-10-12T02:39:17.656Z,83.30
2022-10-12T02:41:50.991Z,83.30
2022-10-12T02:44:22.434Z,83.30
2022-10-12T02:46:53.692Z,83.20
2022-10-12T02:49:24.546Z,83.30
2022-10-12T02:51:53.114Z,83.40
2022-10-12T02:54:21.736Z,83.50
2022-10-12T02:56:50.117Z,83.60
2022-10-12T02:59:19.898Z,83.60
2022-10-12T03:01:48.201Z,83.70
2022-10-12T03:04:18.098Z,83.70
2022-10-12T03:06:46.374Z,84.50
2022-10-12T03:09:14.665Z,83.80
2022-10-12T03:11:44.696Z,83.80
2022-10-12T03:14:13.383Z,83.90
2022-10-12T03:16:41.860Z,83.90
2022-10-12T03:19:10.284Z,83.90
2022-10-12T03:21:39.919Z,83.90
2022-10-12T03:24:08.592Z,83.90
2022-10-12T03:26:36.877Z,84.00
2022-10-12T03:29:05.385Z,84.10
2022-10-12T03:31:33.697Z,84.10
2022-10-12T03:34:02.025Z,84.10
2022-10-12T03:36:30.835Z,84.10
2022-10-12T03:39:00.530Z,84.10
2022-10-12T03:41:28.873Z,84.00
2022-10-12T03:43:57.091Z,83.90
2022-10-12T03:46:25.371Z,84.00
2022-10-12T03:48:53.627Z,84.00
2022-10-12T03:51:21.981Z,83.90
2022-10-12T03:53:50.317Z,83.90
2022-10-12T03:56:20.016Z,83.80
2022-10-12T03:58:48.240Z,84.70
2022-10-12T04:01:16.511Z,83.80
2022-10-12T04:03:44.802Z,84.00
2022-10-12T04:06:13.044Z,84.20
2022-10-12T04:08:41.273Z,84.40
2022-10-12T04:11:09.515Z,85.50
2022-10-12T04:13:39.130Z,85.70
2022-10-12T04:16:08.727Z,86.30
2022-10-12T04:18:37.393Z,86.30
2022-10-12T04:21:10.220Z,86.90
2022-10-12T04:23:38.435Z,87.20
2022-10-12T04:26:07.030Z,87.60
2022-10-12T04:28:35.611Z,87.50
2022-10-12T04:31:05.357Z,88.00
2022-10-12T04:33:33.637Z,88.30
2022-10-12T04:36:01.909Z,88.50
2022-10-12T04:38:30.148Z,88.40
2022-10-12T04:40:58.837Z,89.20
2022-10-12T04:43:27.070Z,88.30
2022-10-12T04:45:56.585Z,88.40
2022-10-12T04:48:27.339Z,89.00
2022-10-12T04:50:55.575Z,89.40
2022-10-12T04:53:23.895Z,89.90
2022-10-12T04:55:52.231Z,90.00
2022-10-12T04:58:20.459Z,90.00
2022-10-12T05:00:49.758Z,90.00
2022-10-12T05:03:17.970Z,90.00
2022-10-12T05:05:47.812Z,90.40
2022-10-12T05:08:16.172Z,90.40
2022-10-12T05:10:46.268Z,90.40
2022-10-12T05:13:14.934Z,90.30
2022-10-12T05:15:43.739Z,90.50
2022-10-12T05:18:12.153Z,90.40
2022-10-12T05:20:40.469Z,90.50
2022-10-12T05:23:12.005Z,90.60
2022-10-12T05:25:40.343Z,90.70
2022-10-12T05:28:08.684Z,90.70
2022-10-12T05:30:36.965Z,90.60
2022-10-12T05:33:05.363Z,90.50
2022-10-12T05:35:33.623Z,90.50
2022-10-12T05:38:01.855Z,90.50
2022-10-12T05:40:31.554Z,90.60
2022-10-12T05:42:59.790Z,90.50
2022-10-12T05:45:28.064Z,90.70
2022-10-12T05:47:56.274Z,90.70
2022-10-12T05:50:24.566Z,90.70
2022-10-12T05:52:52.805Z,91.00
2022-10-12T05:55:21.042Z,91.00
2022-10-12T05:57:51.995Z,91.00
2022-10-12T06:00:23.896Z,91.00
2022-10-12T06:02:52.175Z,91.10
2022-10-12T06:05:20.504Z,91.00
2022-10-12T06:07:48.793Z,90.90
2022-10-12T06:10:17.120Z,91.00
2022-10-12T06:12:45.397Z,91.00
2022-10-12T06:15:15.176Z,91.00
2022-10-12T06:17:43.469Z,90.90
2022-10-12T06:20:12.873Z,91.10
2022-10-12T06:22:41.455Z,91.00
2022-10-12T06:25:10.268Z,91.00
2022-10-12T06:27:38.527Z,91.20
2022-10-12T06:30:07.975Z,90.70
2022-10-12T06:32:37.949Z,90.70
2022-10-12T06:35:07.563Z,90.60
2022-10-12T06:37:49.652Z,90.50
2022-10-12T06:40:31.356Z,90.40
2022-10-12T06:43:02.953Z,90.30
2022-10-12T06:45:31.834Z,90.20
2022-10-12T06:48:01.878Z,90.50
2022-10-12T06:50:30.124Z,90.20
2022-10-12T06:52:58.589Z,90.10
2022-10-12T06:55:27.192Z,90.00
2022-10-12T06:57:56.728Z,89.70
2022-10-12T07:00:25.178Z,89.30
2022-10-12T07:02:54.228Z,89.10
2022-10-12T07:05:25.275Z,88.90
2022-10-12T07:07:53.686Z,88.70
2022-10-12T07:10:22.060Z,88.50
2022-10-12T07:12:50.394Z,88.50
2022-10-12T07:15:18.971Z,88.40
2022-10-12T07:17:47.349Z,88.40
2022-10-12T07:20:15.785Z,87.60
2022-10-12T07:22:45.835Z,86.90
2022-10-12T07:25:14.151Z,87.00
2022-10-12T07:27:42.491Z,86.40
2022-10-12T07:30:13.062Z,86.50
2022-10-12T07:32:42.584Z,86.50
2022-10-12T07:35:10.976Z,86.30
2022-10-12T07:37:39.561Z,86.10
2022-10-12T07:40:10.814Z,86.00
2022-10-12T07:42:59.014Z,85.90
2022-10-12T07:45:28.685Z,86.70
2022-10-12T07:47:57.533Z,85.40
2022-10-12T07:50:26.362Z,85.30
2022-10-12T07:52:54.706Z,85.00
2022-10-12T07:55:24.398Z,84.70
2022-10-12T07:57:52.822Z,84.80
2022-10-12T08:00:22.273Z,84.40
2022-10-12T08:02:50.538Z,84.10
2022-10-12T08:05:21.265Z,83.90
2022-10-12T08:07:50.064Z,83.50
2022-10-12T08:10:19.057Z,83.00
2022-10-12T08:12:52.048Z,82.70
2022-10-12T08:15:21.067Z,83.30
2022-10-12T08:17:49.364Z,82.70
2022-10-12T08:20:17.690Z,82.20
2022-10-12T08:22:45.992Z,82.20
2022-10-12T08:25:14.403Z,82.20
2022-10-12T08:27:42.705Z,82.20
2022-10-12T08:30:13.982Z,81.40
2022-10-12T08:32:42.276Z,80.20
2022-10-12T08:35:10.756Z,80.70
2022-10-12T08:37:39.530Z,80.80
2022-10-12T08:40:11.301Z,80.70
2022-10-12T08:42:46.652Z,80.30
2022-10-12T08:45:31.982Z,80.20
2022-10-12T08:48:06.799Z,79.80
2022-10-12T08:50:37.015Z,79.90
2022-10-12T08:53:22.990Z,79.70
2022-10-12T08:55:52.732Z,79.40
2022-10-12T08:58:22.965Z,79.40
2022-10-12T09:01:05.690Z,79.40
2022-10-12T09:03:48.244Z,79.70
2022-10-12T09:06:20.091Z,78.70
2022-10-12T09:09:03.276Z,78.20
2022-10-12T09:11:47.654Z,77.50
2022-10-12T09:14:20.126Z,77.50
2022-10-12T09:16:54.211Z,77.30
2022-10-12T09:19:25.300Z,77.50
2022-10-12T09:21:53.599Z,77.60
2022-10-12T09:24:26.644Z,77.50
2022-10-12T09:27:00.537Z,77.40
2022-10-12T09:29:40.688Z,77.40
2022-10-12T09:32:43.534Z,76.90
2022-10-12T09:35:14.906Z,76.80
2022-10-12T09:38:02.902Z,76.70
2022-10-12T09:40:33.391Z,76.60
2022-10-12T09:43:04.975Z,76.40
2022-10-12T09:45:35.678Z,76.40
2022-10-12T09:48:19.791Z,76.20
2022-10-12T09:50:52.058Z,76.00
2022-10-12T09:53:33.498Z,75.80
2022-10-12T09:56:10.686Z,75.10
2022-10-12T09:58:51.260Z,75.40
2022-10-12T10:01:24.223Z,75.30
2022-10-12T10:04:14.783Z,76.10
2022-10-12T10:06:45.190Z,74.30
2022-10-12T10:09:30.826Z,73.50
2022-10-12T10:11:59.443Z,73.70
2022-10-12T10:14:27.813Z,73.80
2022-10-12T10:16:56.060Z,73.60
2022-10-12T10:19:26.663Z,73.60
2022-10-12T10:21:56.358Z,72.40
2022-10-12T10:24:28.685Z,72.60
2022-10-12T10:26:58.884Z,72.80
2022-10-12T10:29:36.642Z,72.50
2022-10-12T10:32:24.318Z,72.20
2022-10-12T10:35:05.631Z,71.70
2022-10-12T10:37:35.210Z,71.40
2022-10-12T10:40:04.046Z,70.90
2022-10-12T10:42:34.868Z,70.80
2022-10-12T10:45:07.124Z,70.70
2022-10-12T10:47:42.770Z,70.20
2022-10-12T10:50:27.047Z,70.00
2022-10-12T10:52:58.261Z,68.90
2022-10-12T10:55:32.987Z,68.70
2022-10-12T10:58:06.191Z,68.50
2022-10-12T11:00:40.221Z,68.20
2022-10-12T11:03:17.442Z,68.30
2022-10-12T11:05:55.955Z,67.80
2022-10-12T11:08:27.322Z,66.50
2022-10-12T11:11:00.611Z,65.30
2022-10-12T11:13:34.995Z,64.60
2022-10-12T11:16:09.281Z,63.40
2022-10-12T11:18:41.974Z,62.90
2022-10-12T11:21:16.742Z,62.60
2022-10-12T11:23:50.520Z,62.80
2022-10-12T11:26:27.745Z,63.00
2022-10-12T11:29:00.163Z,58.50
2022-10-12T11:31:33.912Z,57.80
2022-10-12T11:34:08.955Z,58.40
2022-10-12T11:36:55.861Z,58.30
2022-10-12T11:39:39.071Z,58.70
2022-10-12T11:42:27.101Z,59.20
2022-10-12T11:44:55.918Z,58.90
2022-10-12T11:47:33.492Z,58.00
2022-10-12T11:50:05.159Z,57.60
2022-10-12T11:52:39.361Z,58.20
2022-10-12T11:55:28.254Z,58.20
2022-10-12T11:58:00.289Z,58.50
2022-10-12T12:00:46.142Z,58.80
2022-10-12T12:03:20.819Z,59.00
2022-10-12T12:05:49.169Z,58.90
2022-10-12T12:08:46.412Z,57.80
2022-10-12T12:11:22.465Z,57.80
2022-10-12T12:13:51.232Z,58.00
2022-10-12T12:16:32.863Z,57.50
2022-10-12T12:19:38.548Z,57.80
2022-10-12T12:22:34.410Z,57.40
2022-10-12T12:25:24.976Z,57.50
2022-10-12T12:27:55.999Z,57.80
2022-10-12T12:30:42.284Z,57.90
2022-10-12T12:33:35.180Z,57.80
2022-10-12T12:36:06.596Z,57.80
2022-10-12T12:38:36.424Z,58.00
2022-10-12T12:41:10.423Z,58.20
2022-10-12T12:43:57.465Z,58.00
2022-10-12T12:46:47.934Z,58.00
2022-10-12T12:49:30.305Z,58.00
2022-10-12T12:51:59.905Z,58.10
2022-10-12T12:54:29.185Z,58.20
2022-10-12T12:57:29.656Z,58.30
2022-10-12T13:00:21.469Z,58.30
2022-10-12T13:03:13.014Z,58.40
2022-10-12T13:06:22.507Z,57.80
2022-10-12T13:09:30.920Z,57.40
2022-10-12T13:12:16.405Z,57.70
2022-10-12T13:15:03.328Z,57.80
2022-10-12T13:18:18.305Z,57.80
2022-10-12T13:20:51.868Z,57.80
2022-10-12T13:23:23.984Z,57.60
2022-10-12T13:25:57.174Z,57.50
2022-10-12T13:28:28.547Z,57.30
2022-10-12T13:31:03.451Z,57.00
2022-10-12T13:33:34.991Z,57.10
2022-10-12T13:36:06.661Z,56.80
2022-10-12T13:38:39.120Z,56.80
2022-10-12T13:41:10.352Z,56.90
2022-10-12T13:43:45.044Z,57.10
2022-10-12T13:46:35.241Z,56.80
2022-10-12T13:49:03.894Z,56.90
2022-10-12T13:51:32.646Z,57.20
2022-10-12T13:54:00.978Z,57.30
2022-10-12T13:56:31.095Z,57.10
2022-10-12T13:59:04.313Z,57.10
2022-10-12T14:01:49.675Z,57.30
2022-10-12T14:04:17.975Z,57.30
2022-10-12T14:06:52.049Z,57.50
2022-10-12T14:09:23.944Z,57.60
2022-10-12T14:11:54.553Z,57.50
2022-10-12T14:14:33.169Z,57.90
2022-10-12T14:17:02.938Z,57.80
2022-10-12T14:19:45.875Z,57.90
2022-10-12T14:22:22.850Z,57.90
2022-10-12T14:24:59.298Z,57.90
2022-10-12T14:27:47.486Z,58.10
2022-10-12T14:30:21.197Z,58.20
2022-10-12T14:32:56.073Z,58.10
2022-10-12T14:35:29.360Z,57.80
2022-10-12T14:37:59.370Z,58.00
2022-10-12T14:40:32.562Z,58.20
2022-10-12T14:43:04.031Z,58.40
2022-10-12T14:45:33.827Z,58.50
2022-10-12T14:48:05.124Z,58.80
2022-10-12T14:50:33.945Z,58.90
2022-10-12T14:53:05.155Z,58.90
2022-10-12T14:55:35.225Z,59.00
2022-10-12T14:58:03.809Z,59.00
2022-10-12T15:00:34.357Z,59.00
2022-10-12T15:03:05.015Z,59.10
2022-10-12T15:05:34.822Z,59.20
2022-10-12T15:08:07.580Z,59.30
2022-10-12T15:10:37.162Z,59.40
2022-10-12T15:13:05.446Z,59.50
2022-10-12T15:15:39.358Z,59.60
2022-10-12T15:18:09.295Z,59.70
2022-10-12T15:20:37.712Z,59.70
2022-10-12T15:23:06.355Z,59.80
2022-10-12T15:25:42.757Z,60.00
2022-10-12T15:28:11.097Z,60.20
2022-10-12T15:30:47.507Z,60.20
2022-10-12T15:33:29.500Z,60.60
2022-10-12T15:35:58.206Z,60.60
2022-10-12T15:38:26.507Z,60.60
2022-10-12T15:40:58.134Z,60.90
2022-10-12T15:43:26.576Z,60.90
2022-10-12T15:45:56.553Z,60.90
2022-10-12T15:48:24.856Z,61.10
2022-10-12T15:50:54.488Z,61.10
2022-10-12T15:53:25.176Z,61.30
2022-10-12T15:55:54.035Z,61.40
2022-10-12T15:58:22.867Z,61.60
2022-10-12T16:00:51.794Z,61.70
2022-10-12T16:03:26.056Z,61.80
2022-10-12T16:05:56.090Z,62.00
2022-10-12T16:08:24.673Z,62.30
2022-10-12T16:10:53.213Z,62.70
2022-10-12T16:13:21.573Z,63.10
2022-10-12T16:15:49.786Z,63.40
2022-10-12T16:18:18.058Z,63.50
2022-10-12T16:20:52.478Z,63.70
2022-10-12T16:23:25.242Z,63.80
2022-10-12T16:25:53.683Z,63.90
2022-10-12T16:28:22.893Z,64.00
2022-10-12T16:30:51.332Z,64.00
2022-10-12T16:33:20.356Z,64.10
2022-10-12T16:35:48.707Z,64.40
2022-10-12T16:38:19.848Z,64.70
2022-10-12T16:40:50.304Z,65.00
2022-10-12T16:43:19.575Z,65.10
2022-10-12T16:45:56.706Z,65.20
2022-10-12T16:48:24.963Z,65.30
2022-10-12T16:50:53.281Z,65.30
2022-10-12T16:53:21.525Z,65.50
2022-10-12T16:55:51.187Z,65.80
2022-10-12T16:58:19.511Z,65.90
2022-10-12T17:00:47.817Z,65.90
2022-10-12T17:03:16.125Z,66.10
2022-10-12T17:05:44.362Z,66.00
2022-10-12T17:08:15.483Z,66.10
2022-10-12T17:10:45.475Z,66.30
2022-10-12T17:13:15.119Z,66.40
2022-10-12T17:15:43.743Z,66.60
2022-10-12T17:18:12.063Z,66.60
2022-10-12T17:20:40.282Z,66.80
2022-10-12T17:23:08.541Z,66.90
2022-10-12T17:25:36.817Z,67.10
2022-10-12T17:28:05.096Z,67.30
2022-10-12T17:30:38.385Z,68.20
2022-10-12T17:33:06.682Z,67.60
2022-10-12T17:35:34.914Z,67.70
2022-10-12T17:38:03.185Z,67.80
2022-10-12T17:40:31.383Z,68.00
2022-10-12T17:42:59.601Z,68.90
2022-10-12T17:45:28.030Z,68.80
2022-10-12T17:47:57.673Z,68.90
2022-10-12T17:50:25.912Z,69.10
2022-10-12T17:52:54.876Z,69.20
2022-10-12T17:55:47.108Z,69.30
2022-10-12T17:58:11.411Z,69.40
2022-10-12T18:00:39.785Z,69.40
2022-10-12T18:03:10.117Z,69.60
2022-10-12T18:05:38.377Z,69.70
2022-10-12T18:08:07.017Z,69.90
2022-10-12T18:10:35.270Z,70.00
2022-10-12T18:13:03.473Z,70.20
2022-10-12T18:15:31.704Z,70.20
2022-10-12T18:17:59.921Z,70.30
2022-10-12T18:20:29.561Z,70.40
2022-10-12T18:22:58.508Z,70.60
2022-10-12T18:25:26.742Z,70.70
2022-10-12T18:27:54.973Z,70.80
2022-10-12T18:30:23.384Z,70.90
2022-10-12T18:32:51.629Z,71.10
2022-10-12T18:35:20.001Z,71.20
2022-10-12T18:37:49.646Z,71.40
2022-10-12T18:40:17.956Z,71.40
2022-10-12T18:42:46.319Z,71.60
2022-10-12T18:45:14.843Z,73.10
2022-10-12T18:47:43.111Z,73.00
2022-10-12T18:50:11.578Z,72.80
2022-10-12T18:52:39.775Z,72.80
2022-10-12T18:55:10.282Z,72.80
2022-10-12T18:57:40.068Z,74.20
2022-10-12T19:00:10.827Z,74.00
2022-10-12T19:02:39.134Z,73.80
2022-10-12T19:05:07.786Z,73.80
2022-10-12T19:07:36.448Z,73.80
2022-10-12T19:10:09.842Z,73.80
2022-10-12T19:12:42.142Z,73.80
2022-10-12T19:15:13.101Z,73.80
2022-10-12T19:17:41.414Z,73.90
2022-10-12T19:20:10.463Z,73.90
2022-10-12T19:22:38.670Z,73.90
2022-10-12T19:25:08.209Z,74.00
2022-10-12T19:27:37.913Z,74.20
2022-10-12T19:30:07.461Z,75.00
2022-10-12T19:32:35.805Z,74.20
2022-10-12T19:35:04.128Z,74.30
2022-10-12T19:37:32.350Z,74.30
2022-10-12T19:40:05.177Z,74.40
2022-10-12T19:42:37.047Z,74.40
2022-10-12T19:45:05.790Z,74.50
2022-10-12T19:47:34.866Z,75.30
2022-10-12T19:50:03.344Z,74.50
2022-10-12T19:52:31.623Z,74.70
2022-10-12T19:54:59.841Z,74.80
2022-10-12T19:57:28.393Z,74.90
2022-10-12T19:59:58.003Z,75.10
2022-10-12T20:02:26.229Z,75.00
2022-10-12T20:04:54.687Z,75.10
2022-10-12T20:07:22.943Z,75.10
2022-10-12T20:09:51.155Z,75.20
2022-10-12T20:12:19.627Z,75.20
2022-10-12T20:14:48.283Z,75.60
2022-10-12T20:17:17.931Z,75.80
2022-10-12T20:19:46.242Z,75.80
2022-10-12T20:22:14.535Z,76.50
2022-10-12T20:24:42.825Z,76.40
2022-10-12T20:27:11.255Z,76.40
2022-10-12T20:29:40.136Z,76.40
2022-10-12T20:32:08.347Z,76.50
2022-10-12T20:34:38.057Z,76.50
2022-10-12T20:37:06.312Z,76.60
2022-10-12T20:39:34.762Z,76.70
2022-10-12T20:42:02.979Z,76.80
2022-10-12T20:44:31.202Z,76.80
2022-10-12T20:46:59.424Z,76.80
2022-10-12T20:49:27.759Z,76.90
2022-10-12T20:51:57.378Z,76.90
2022-10-12T20:54:25.583Z,77.20
2022-10-12T20:56:53.861Z,77.20
2022-10-12T20:59:22.161Z,77.20
2022-10-12T21:01:50.442Z,77.20
2022-10-12T21:04:18.730Z,77.50
2022-10-12T21:06:46.955Z,77.70
2022-10-12T21:09:16.747Z,77.70
2022-10-12T21:11:44.951Z,77.70
2022-10-12T21:14:13.549Z,77.80
2022-10-12T21:16:41.840Z,78.00
2022-10-12T21:19:18.248Z,78.00
2022-10-12T21:21:46.595Z,78.10
2022-10-12T21:24:16.983Z,78.10
2022-10-12T21:26:45.528Z,78.10
2022-10-12T21:29:14.453Z,78.10
2022-10-12T21:31:42.674Z,78.10
2022-10-12T21:34:12.391Z,78.10
2022-10-12T21:36:40.957Z,78.10
2022-10-12T21:39:12.002Z,79.00
2022-10-12T21:41:42.096Z,78.20
2022-10-12T21:44:11.183Z,78.20
2022-10-12T21:46:39.433Z,78.30
2022-10-12T21:49:09.043Z,78.30
2022-10-12T21:51:38.315Z,78.50
2022-10-12T21:54:07.407Z,78.50
2022-10-12T21:56:37.750Z,78.50
2022-10-12T21:59:08.282Z,78.60
2022-10-12T22:01:38.127Z,78.60
2022-10-12T22:04:08.443Z,78.60
2022-10-12T22:06:36.749Z,78.70
2022-10-12T22:09:08.668Z,78.60
2022-10-12T22:11:38.640Z,78.60
2022-10-12T22:14:10.910Z,78.60
2022-10-12T22:16:39.375Z,78.80
2022-10-12T22:19:09.239Z,78.90
2022-10-12T22:21:37.919Z,79.00
2022-10-12T22:24:06.687Z,78.90
2022-10-12T22:26:35.302Z,78.90
2022-10-12T22:29:05.152Z,79.00
2022-10-12T22:31:35.451Z,79.10
2022-10-12T22:34:03.705Z,79.20
2022-10-12T22:36:32.318Z,79.40
2022-10-12T22:39:01.184Z,79.50
2022-10-12T22:41:29.476Z,79.40
2022-10-12T22:43:57.983Z,79.40
2022-10-12T22:46:26.963Z,79.50
2022-10-12T22:48:56.882Z,79.60
2022-10-12T22:51:31.441Z,79.60
2022-10-12T22:54:00.357Z,79.60
2022-10-12T22:56:29.237Z,79.50
2022-10-12T22:58:58.818Z,79.50
2022-10-12T23:01:27.798Z,79.60
2022-10-12T23:03:57.652Z,79.60
2022-10-12T23:06:26.653Z,79.50
2022-10-12T23:08:55.131Z,79.60
2022-10-12T23:11:25.533Z,79.60
2022-10-12T23:13:53.943Z,79.60
2022-10-12T23:16:24.025Z,79.70
2022-10-12T23:18:59.077Z,79.80
2022-10-12T23:21:30.064Z,79.80
2022-10-12T23:23:59.104Z,79.80
2022-10-12T23:26:29.110Z,80.00
2022-10-12T23:28:58.213Z,80.00
2022-10-12T23:31:28.141Z,80.00
2022-10-12T23:33:57.436Z,80.10
2022-10-12T23:36:25.740Z,80.20
2022-10-12T23:38:55.427Z,80.20
2022-10-12T23:41:24.438Z,80.20
2022-10-12T23:43:52.727Z,80.20
2022-10-12T23:46:20.932Z,80.20
2022-10-12T23:48:49.158Z,80.20
2022-10-12T23:51:17.366Z,80.20
2022-10-12T23:53:45.625Z,81.10
2022-10-12T23:56:15.809Z,80.50
2022-10-12T23:58:44.123Z,80.60
